LNG Libra — V7BX3 — position and weather

sailwx.info

Track history (hours):
 
Tides and Currents Weather Stations Pressure Air Temp Water Temp Dewpoint Dewpoint Depression Visibility Wind Speed Wind Dir Waves Ship Positions

LNG Libra

Last reported at 2015-Jun-08 11:20 UTC. Time now 2015-Jul-31 05:09 UTC.
Position S 27°56' W 044°46'.
Warning: this ship's position is 52 days out of date.

Type: Tanker. MMSI: 538001390.

Date/timePositionNaut miles runAvg speedWind from/ knotsBaromVisibWave heightAir tempDewpointWater temp
2015-Jun-08 11:20S 27°56' W 044°46'1316.0
2015-Jun-08 10:33S 27°48' W 044°35'1815.8
2015-Jun-08 09:25S 27°35' W 044°21'1615.8
2015-Jun-08 08:24S 27°24' W 044°08'1716.0
2015-Jun-08 07:20S 27°12' W 043°54'1416.0
2015-Jun-08 06:28S 27°03' W 043°43'23916.7
2015-Jun-07 16:09S 24°10' W 040°39'1016.8
2015-Jun-07 15:33S 24°02' W 040°32'1716.7
2015-Jun-07 14:33S 23°50' W 040°20'  
2015-May-29 20:16N 10°40' W 061°48'  
Track history (hours):
 
Tides and Currents Weather Stations Pressure Air Temp Water Temp Dewpoint Dewpoint Depression Visibility Wind Speed Wind Dir Waves Ship Positions

LNG Libra

Last reported at 2015-Jun-08 11:20 UTC. Time now 2015-Jul-31 05:09 UTC.
Position S 27°56' W 044°46'.
Warning: this ship's position is 52 days out of date.

Type: Tanker. MMSI: 538001390.

Date/timePositionNaut miles runAvg speedWind from/ knotsBaromVisibWave heightAir tempDewpointWater temp
2015-Jun-08 11:20S 27°56' W 044°46'1316.0
2015-Jun-08 10:33S 27°48' W 044°35'1815.8
2015-Jun-08 09:25S 27°35' W 044°21'1615.8
2015-Jun-08 08:24S 27°24' W 044°08'1716.0
2015-Jun-08 07:20S 27°12' W 043°54'1416.0
2015-Jun-08 06:28S 27°03' W 043°43'23916.7
2015-Jun-07 16:09S 24°10' W 040°39'1016.8
2015-Jun-07 15:33S 24°02' W 040°32'1716.7
2015-Jun-07 14:33S 23°50' W 040°20'  
2015-May-29 20:16N 10°40' W 061°48'  

Dump ship's entire track history